createdAt,value
2022-09-26T00:01:08.740Z,99153.81
2022-09-26T00:03:36.572Z,99146.38
2022-09-26T00:06:04.816Z,99138.03
2022-09-26T00:08:32.287Z,99141.50
2022-09-26T00:11:01.653Z,99134.81
2022-09-26T00:13:29.553Z,99139.09
2022-09-26T00:15:57.093Z,99139.87
2022-09-26T00:18:24.787Z,99145.44
2022-09-26T00:20:52.173Z,99144.91
2022-09-26T00:23:19.606Z,99139.75
2022-09-26T00:25:51.534Z,99136.34
2022-09-26T00:28:18.896Z,99136.34
2022-09-26T00:30:46.270Z,99133.38
2022-09-26T00:33:14.129Z,99130.44
2022-09-26T00:35:41.737Z,99115.22
2022-09-26T00:38:09.692Z,99109.94
2022-09-26T00:40:37.663Z,99114.22
2022-09-26T00:43:05.985Z,99114.94
2022-09-26T00:45:33.393Z,99106.06
2022-09-26T00:48:03.672Z,99116.16
2022-09-26T00:50:40.593Z,99111.72
2022-09-26T00:53:18.229Z,99103.41
2022-09-26T00:55:48.373Z,99090.88
2022-09-26T00:58:27.708Z,99079.50
2022-09-26T01:00:55.258Z,99092.97
2022-09-26T01:03:22.970Z,99095.63
2022-09-26T01:05:50.371Z,99082.38
2022-09-26T01:08:19.472Z,99078.47
2022-09-26T01:10:47.101Z,99086.03
2022-09-26T01:13:14.662Z,99088.41
2022-09-26T01:15:42.040Z,99077.19
2022-09-26T01:18:09.620Z,99087.66
2022-09-26T01:20:49.401Z,99080.13
2022-09-26T01:23:41.854Z,99082.88
2022-09-26T01:26:34.829Z,99069.00
2022-09-26T01:29:11.687Z,99075.28
2022-09-26T01:31:43.093Z,99067.12
2022-09-26T01:34:24.465Z,99071.66
2022-09-26T01:37:05.131Z,99075.50
2022-09-26T01:39:51.391Z,99057.63
2022-09-26T01:42:37.513Z,99056.00
2022-09-26T01:45:13.113Z,99054.34
2022-09-26T01:48:18.737Z,99067.88
2022-09-26T01:50:50.511Z,99062.59
2022-09-26T01:53:28.136Z,99051.34
2022-09-26T01:55:59.746Z,99048.22
2022-09-26T01:58:31.742Z,99039.00
2022-09-26T02:01:01.554Z,99022.16
2022-09-26T02:03:32.121Z,99027.56
2022-09-26T02:06:03.033Z,99033.97
2022-09-26T02:08:36.523Z,99026.88
2022-09-26T02:11:18.829Z,99037.25
2022-09-26T02:13:57.559Z,99038.69
2022-09-26T02:16:48.821Z,99038.03
2022-09-26T02:19:24.139Z,99031.47
2022-09-26T02:21:51.544Z,99040.66
2022-09-26T02:24:19.160Z,99043.53
2022-09-26T02:26:46.867Z,99050.72
2022-09-26T02:29:14.302Z,99055.78
2022-09-26T02:31:56.895Z,99059.84
2022-09-26T02:34:24.992Z,99066.62
2022-09-26T02:36:53.537Z,99065.47
2022-09-26T02:39:21.213Z,99051.06
2022-09-26T02:42:25.558Z,99052.69
2022-09-26T02:45:21.411Z,99016.22
2022-09-26T02:48:04.406Z,99017.47
2022-09-26T02:51:06.061Z,99029.59
2022-09-26T02:54:12.058Z,99020.75
2022-09-26T02:57:04.997Z,99015.84
2022-09-26T02:59:40.625Z,99034.78
2022-09-26T03:02:15.691Z,99027.34
2022-09-26T03:05:00.736Z,99016.69
2022-09-26T03:07:36.053Z,99016.50
2022-09-26T03:10:05.897Z,99016.41
2022-09-26T03:12:33.976Z,99022.91
2022-09-26T03:15:01.822Z,99012.06
2022-09-26T03:17:29.434Z,99014.66
2022-09-26T03:20:05.701Z,99009.34
2022-09-26T03:22:36.248Z,99011.81
2022-09-26T03:25:03.640Z,99001.56
2022-09-26T03:27:32.089Z,98996.59
2022-09-26T03:29:59.736Z,98991.06
2022-09-26T03:32:29.650Z,98980.78
2022-09-26T03:34:57.327Z,98978.00
2022-09-26T03:37:24.934Z,98968.44
2022-09-26T03:39:52.448Z,98968.44
2022-09-26T03:42:20.634Z,98970.22
2022-09-26T03:44:48.379Z,98961.84
2022-09-26T03:47:18.183Z,98959.16
2022-09-26T03:49:47.213Z,98969.50
2022-09-26T03:52:14.868Z,98959.69
2022-09-26T03:54:42.625Z,98954.47
2022-09-26T03:57:14.889Z,98942.78
2022-09-26T03:59:43.011Z,98947.75
2022-09-26T04:02:11.226Z,98937.66
2022-09-26T04:04:39.200Z,98938.69
2022-09-26T04:07:06.723Z,98933.78
2022-09-26T04:09:34.070Z,98928.28
2022-09-26T04:12:01.822Z,98930.22
2022-09-26T04:14:29.253Z,98931.03
2022-09-26T04:16:58.387Z,98921.84
2022-09-26T04:19:26.760Z,98923.97
2022-09-26T04:21:54.192Z,98924.66
2022-09-26T04:24:21.707Z,98925.53
2022-09-26T04:26:49.489Z,98918.13
2022-09-26T04:29:16.993Z,98920.34
2022-09-26T04:31:45.846Z,98918.56
2022-09-26T04:34:14.904Z,98917.72
2022-09-26T04:36:42.631Z,98913.50
2022-09-26T04:39:10.410Z,98918.84
2022-09-26T04:41:38.837Z,98919.44
2022-09-26T04:44:06.162Z,98914.44
2022-09-26T04:46:33.748Z,98922.50
2022-09-26T04:49:01.810Z,98921.97
2022-09-26T04:51:29.785Z,98921.88
2022-09-26T04:53:57.443Z,98942.56
2022-09-26T04:56:26.309Z,98950.44
2022-09-26T04:58:56.264Z,98955.38
2022-09-26T05:01:24.283Z,98929.41
2022-09-26T05:03:53.428Z,98936.91
2022-09-26T05:06:20.936Z,98944.13
2022-09-26T05:08:49.209Z,98939.16
2022-09-26T05:11:18.456Z,98935.25
2022-09-26T05:13:49.033Z,98934.84
2022-09-26T05:16:20.328Z,98935.75
2022-09-26T05:18:51.872Z,98939.75
2022-09-26T05:21:19.600Z,98934.78
2022-09-26T05:24:05.674Z,98931.25
2022-09-26T05:26:41.819Z,98930.06
2022-09-26T05:29:09.540Z,98926.75
2022-09-26T05:31:39.505Z,98916.59
2022-09-26T05:34:08.673Z,98920.34
2022-09-26T05:36:36.221Z,98921.81
2022-09-26T05:39:26.341Z,98931.75
2022-09-26T05:41:54.357Z,98925.41
2022-09-26T05:44:21.950Z,98925.13
2022-09-26T05:46:50.348Z,98932.59
2022-09-26T05:49:17.684Z,98949.19
2022-09-26T05:51:46.451Z,98936.47
2022-09-26T05:54:14.135Z,98931.63
2022-09-26T05:56:42.118Z,98941.56
2022-09-26T05:59:10.572Z,98929.22
2022-09-26T06:01:46.883Z,98927.50
2022-09-26T06:04:15.889Z,98913.13
2022-09-26T06:06:47.715Z,98911.16
2022-09-26T06:09:17.219Z,98901.22
2022-09-26T06:11:45.656Z,98895.28
2022-09-26T06:14:13.031Z,98891.56
2022-09-26T06:16:40.785Z,98899.53
2022-09-26T06:19:08.394Z,98891.34
2022-09-26T06:21:39.868Z,98904.81
2022-09-26T06:24:09.394Z,98901.06
2022-09-26T06:26:40.263Z,98901.69
2022-09-26T06:29:07.681Z,98903.75
2022-09-26T06:31:35.561Z,98902.53
2022-09-26T06:34:05.655Z,98903.22
2022-09-26T06:36:33.871Z,98902.38
2022-09-26T06:39:02.103Z,98909.06
2022-09-26T06:41:30.298Z,98912.28
2022-09-26T06:43:57.611Z,98914.22
2022-09-26T06:46:27.476Z,98916.88
2022-09-26T06:48:55.257Z,98923.66
2022-09-26T06:51:23.768Z,98922.34
2022-09-26T06:53:51.696Z,98913.63
2022-09-26T06:56:19.366Z,98897.69
2022-09-26T06:58:49.584Z,98908.78
2022-09-26T07:01:18.444Z,98906.19
2022-09-26T07:03:47.217Z,98900.44
2022-09-26T07:06:15.138Z,98898.25
2022-09-26T07:09:01.352Z,98899.66
2022-09-26T07:14:19.052Z,98899.75
2022-09-26T07:16:48.861Z,98901.44
2022-09-26T07:19:17.026Z,98897.66
2022-09-26T07:21:46.200Z,98901.84
2022-09-26T07:24:16.838Z,98895.13
2022-09-26T07:26:44.377Z,98904.91
2022-09-26T07:29:12.488Z,98900.75
2022-09-26T07:31:40.180Z,98908.16
2022-09-26T07:34:08.879Z,98917.84
2022-09-26T07:36:39.685Z,98925.38
2022-09-26T07:39:07.234Z,98923.50
2022-09-26T07:41:34.588Z,98929.25
2022-09-26T07:47:09.592Z,98935.88
2022-09-26T07:49:56.010Z,98940.97
2022-09-26T07:52:23.733Z,98940.81
2022-09-26T07:54:51.801Z,98941.13
2022-09-26T07:57:19.699Z,98943.50
2022-09-26T07:59:50.490Z,98946.50
2022-09-26T08:02:26.069Z,98940.13
2022-09-26T08:04:58.962Z,98935.41
2022-09-26T08:07:29.755Z,98938.31
2022-09-26T08:09:58.765Z,98935.97
2022-09-26T08:12:27.651Z,98934.81
2022-09-26T08:14:56.336Z,98940.06
2022-09-26T08:17:24.980Z,98951.34
2022-09-26T08:19:52.678Z,98941.56
2022-09-26T08:22:20.226Z,98948.22
2022-09-26T08:24:49.812Z,98946.34
2022-09-26T08:27:18.214Z,98943.56
2022-09-26T08:29:48.470Z,98930.12
2022-09-26T08:32:17.712Z,98937.69
2022-09-26T08:34:45.109Z,98941.13
2022-09-26T08:37:16.874Z,98940.97
2022-09-26T08:39:44.948Z,98946.91
2022-09-26T08:42:17.993Z,98944.31
2022-09-26T08:45:24.171Z,98951.16
2022-09-26T08:48:06.541Z,98951.22
2022-09-26T08:50:51.932Z,98947.50
2022-09-26T08:53:24.965Z,98944.22
2022-09-26T08:55:53.737Z,98941.53
2022-09-26T08:58:28.470Z,98935.94
2022-09-26T09:01:00.697Z,98951.06
2022-09-26T09:03:36.770Z,98953.38
2022-09-26T09:06:11.561Z,98958.66
2022-09-26T09:08:42.170Z,98962.56
2022-09-26T09:11:28.908Z,98955.06
2022-09-26T09:14:02.267Z,98948.47
2022-09-26T09:17:03.786Z,98937.09
2022-09-26T09:19:53.297Z,98947.38
2022-09-26T09:22:44.949Z,98943.84
2022-09-26T09:25:23.887Z,98945.53
2022-09-26T09:28:00.059Z,98935.38
2022-09-26T09:30:37.514Z,98941.03
2022-09-26T09:33:14.984Z,98929.44
2022-09-26T09:36:02.061Z,98927.66
2022-09-26T09:38:31.560Z,98927.88
2022-09-26T09:41:07.764Z,98922.12
2022-09-26T09:44:00.006Z,98918.09
2022-09-26T09:46:39.792Z,98911.09
2022-09-26T09:49:10.366Z,98916.41
2022-09-26T09:51:56.530Z,98913.09
2022-09-26T09:54:41.517Z,98900.84
2022-09-26T09:57:28.270Z,98907.00
2022-09-26T10:00:08.045Z,98900.16
2022-09-26T10:02:44.085Z,98904.50
2022-09-26T10:05:42.751Z,98904.03
2022-09-26T10:08:27.907Z,98893.03
2022-09-26T10:11:13.145Z,98896.13
2022-09-26T10:13:43.689Z,98895.41
2022-09-26T10:16:15.241Z,98893.53
2022-09-26T10:19:00.886Z,98912.13
2022-09-26T10:21:40.810Z,98915.16
2022-09-26T10:24:24.201Z,98907.09
2022-09-26T10:26:54.790Z,98908.50
2022-09-26T10:29:35.125Z,98917.88
2022-09-26T10:32:02.837Z,98913.34
2022-09-26T10:34:31.416Z,98928.34
2022-09-26T10:37:20.201Z,98936.97
2022-09-26T10:40:14.728Z,98926.63
2022-09-26T10:42:47.186Z,98926.13
2022-09-26T10:45:21.199Z,98920.25
2022-09-26T10:47:52.821Z,98910.28
2022-09-26T10:50:28.457Z,98912.09
2022-09-26T10:53:02.235Z,98909.38
2022-09-26T10:55:32.994Z,98920.25
2022-09-26T10:58:11.360Z,98924.81
2022-09-26T11:00:46.024Z,98924.41
2022-09-26T11:03:16.001Z,98919.53
2022-09-26T11:06:00.000Z,98921.44
2022-09-26T11:08:32.592Z,98919.66
2022-09-26T11:11:04.154Z,98918.63
2022-09-26T11:13:48.075Z,98931.63
2022-09-26T11:16:16.308Z,98932.78
2022-09-26T11:18:59.049Z,98920.81
2022-09-26T11:21:42.749Z,98916.56
2022-09-26T11:24:24.451Z,98908.84
2022-09-26T11:27:19.366Z,98914.69
2022-09-26T11:29:55.698Z,98921.13
2022-09-26T11:32:28.398Z,98922.34
2022-09-26T11:35:02.551Z,98923.69
2022-09-26T11:37:55.501Z,98909.38
2022-09-26T11:40:27.889Z,98909.44
2022-09-26T11:43:17.524Z,98909.28
2022-09-26T11:45:54.003Z,98912.25
2022-09-26T11:48:48.795Z,98913.66
2022-09-26T11:51:38.307Z,98912.97
2022-09-26T11:54:28.251Z,98910.63
2022-09-26T11:57:27.676Z,98900.84
2022-09-26T12:00:08.029Z,98909.81
2022-09-26T12:03:00.811Z,98920.63
2022-09-26T12:05:53.524Z,98910.97
2022-09-26T12:08:42.669Z,98908.94
2022-09-26T12:11:34.090Z,98896.16
2022-09-26T12:14:26.018Z,98889.81
2022-09-26T12:16:59.137Z,98878.81
2022-09-26T12:19:45.321Z,98894.22
2022-09-26T12:22:29.000Z,98883.78
2022-09-26T12:25:10.921Z,98880.78
2022-09-26T12:27:44.884Z,98875.88
2022-09-26T12:30:21.974Z,98874.13
2022-09-26T12:33:24.905Z,98876.34
2022-09-26T12:36:04.809Z,98867.88
2022-09-26T12:38:47.627Z,98861.66
2022-09-26T12:41:38.543Z,98867.75
2022-09-26T12:44:22.229Z,98871.91
2022-09-26T12:47:08.137Z,98857.87
2022-09-26T12:49:38.541Z,98861.00
2022-09-26T12:52:15.901Z,98851.53
2022-09-26T12:54:56.307Z,98835.19
2022-09-26T12:57:38.524Z,98841.38
2022-09-26T13:00:23.198Z,98845.47
2022-09-26T13:03:09.768Z,98837.50
2022-09-26T13:05:52.250Z,98841.09
2022-09-26T13:08:43.062Z,98854.09
2022-09-26T13:11:19.483Z,98844.03
2022-09-26T13:14:09.693Z,98851.34
2022-09-26T13:16:46.715Z,98851.53
2022-09-26T13:19:23.579Z,98844.47
2022-09-26T13:22:00.076Z,98844.91
2022-09-26T13:24:34.723Z,98833.59
2022-09-26T13:27:12.358Z,98834.31
2022-09-26T13:29:39.963Z,98843.13
2022-09-26T13:32:25.351Z,98833.06
2022-09-26T13:35:03.609Z,98833.75
2022-09-26T13:37:57.833Z,98847.53
2022-09-26T13:40:41.461Z,98845.69
2022-09-26T13:43:24.192Z,98845.97
2022-09-26T13:46:28.334Z,98848.34
2022-09-26T13:49:25.099Z,98847.81
2022-09-26T13:51:58.218Z,98843.91
2022-09-26T13:54:27.649Z,98845.16
2022-09-26T13:56:55.916Z,98833.03
2022-09-26T13:59:32.519Z,98824.19
2022-09-26T14:02:18.448Z,98820.22
2022-09-26T14:05:17.906Z,98815.41
2022-09-26T14:08:10.587Z,98823.72
2022-09-26T14:10:39.725Z,98830.81
2022-09-26T14:13:09.783Z,98829.25
2022-09-26T14:15:49.328Z,98819.03
2022-09-26T14:18:54.970Z,98809.47
2022-09-26T14:21:38.728Z,98812.41
2022-09-26T14:24:21.197Z,98803.91
2022-09-26T14:27:10.232Z,98795.94
2022-09-26T14:29:42.403Z,98794.75
2022-09-26T14:32:10.436Z,98780.47
2022-09-26T14:34:54.083Z,98784.81
2022-09-26T14:37:24.332Z,98796.72
2022-09-26T14:40:05.013Z,98790.47
2022-09-26T14:42:38.342Z,98786.19
2022-09-26T14:45:07.797Z,98787.66
2022-09-26T14:48:15.225Z,98784.69
2022-09-26T14:50:53.763Z,98783.00
2022-09-26T14:53:25.254Z,98782.78
2022-09-26T14:55:59.124Z,98778.94
2022-09-26T14:58:38.649Z,98786.06
2022-09-26T15:01:24.627Z,98781.84
2022-09-26T15:03:55.953Z,98778.50
2022-09-26T15:06:24.519Z,98781.66
2022-09-26T15:08:52.650Z,98769.66
2022-09-26T15:11:32.856Z,98757.88
2022-09-26T15:14:03.196Z,98759.66
2022-09-26T15:16:33.425Z,98766.22
2022-09-26T15:19:12.708Z,98771.41
2022-09-26T15:21:43.028Z,98760.97
2022-09-26T15:24:23.973Z,98750.00
2022-09-26T15:26:51.880Z,98759.28
2022-09-26T15:29:19.498Z,98757.50
2022-09-26T15:31:47.280Z,98759.06
2022-09-26T15:34:20.774Z,98752.16
2022-09-26T15:36:55.147Z,98751.09
2022-09-26T15:39:31.556Z,98754.44
2022-09-26T15:42:24.329Z,98751.66
2022-09-26T15:44:58.791Z,98756.88
2022-09-26T15:47:29.074Z,98761.66
2022-09-26T15:50:03.545Z,98769.34
2022-09-26T15:52:33.186Z,98755.50
2022-09-26T15:55:00.504Z,98758.75
2022-09-26T15:57:27.832Z,98760.25
2022-09-26T15:59:55.532Z,98759.37
2022-09-26T16:02:24.676Z,98762.53
2022-09-26T16:04:52.926Z,98763.34
2022-09-26T16:07:23.675Z,98773.63
2022-09-26T16:09:51.510Z,98771.44
2022-09-26T16:12:23.754Z,98770.22
2022-09-26T16:15:08.098Z,98772.00
2022-09-26T16:17:40.270Z,98769.91
2022-09-26T16:20:13.401Z,98768.31
2022-09-26T16:22:45.485Z,98765.09
2022-09-26T16:25:15.469Z,98765.03
2022-09-26T16:27:43.234Z,98766.97
2022-09-26T16:30:28.684Z,98769.34
2022-09-26T16:33:13.196Z,98775.19
2022-09-26T16:35:47.773Z,98765.16
2022-09-26T16:38:24.607Z,98767.91
2022-09-26T16:40:56.475Z,98765.66
2022-09-26T16:43:26.878Z,98762.28
2022-09-26T16:46:11.553Z,98761.78
2022-09-26T16:48:51.889Z,98759.37
2022-09-26T16:51:40.860Z,98758.09
2022-09-26T16:54:08.482Z,98763.19
2022-09-26T16:56:38.828Z,98757.75
2022-09-26T16:59:24.272Z,98759.06
2022-09-26T17:01:56.464Z,98757.47
2022-09-26T17:04:28.908Z,98763.63
2022-09-26T17:06:57.339Z,98768.69
2022-09-26T17:09:29.878Z,98764.69
2022-09-26T17:12:05.185Z,98759.72
2022-09-26T17:14:40.468Z,98768.66
2022-09-26T17:17:16.204Z,98779.91
2022-09-26T17:19:46.185Z,98781.63
2022-09-26T17:22:14.834Z,98777.47
2022-09-26T17:24:43.149Z,98778.69
2022-09-26T17:27:17.878Z,98785.38
2022-09-26T17:29:48.547Z,98776.09
2022-09-26T17:32:32.214Z,98777.47
2022-09-26T17:35:01.285Z,98779.50
2022-09-26T17:37:28.789Z,98777.06
2022-09-26T17:39:56.235Z,98778.91
2022-09-26T17:42:24.187Z,98778.94
2022-09-26T17:44:51.604Z,98778.09
2022-09-26T17:47:19.028Z,98782.06
2022-09-26T17:49:49.133Z,98777.41
2022-09-26T17:52:26.832Z,98778.12
2022-09-26T17:54:57.407Z,98771.81
2022-09-26T17:57:29.972Z,98770.62
2022-09-26T17:59:57.636Z,98767.03
2022-09-26T18:02:47.438Z,98772.28
2022-09-26T18:05:29.942Z,98767.16
2022-09-26T18:08:04.054Z,98774.63
2022-09-26T18:10:33.775Z,98781.13
2022-09-26T18:13:02.922Z,98776.69
2022-09-26T18:15:30.302Z,98784.31
2022-09-26T18:18:00.249Z,98779.50
2022-09-26T18:20:34.392Z,98776.94
2022-09-26T18:23:03.502Z,98767.38
2022-09-26T18:25:30.908Z,98778.12
2022-09-26T18:27:58.265Z,98770.66
2022-09-26T18:30:26.053Z,98776.50
2022-09-26T18:32:54.979Z,98777.31
2022-09-26T18:35:27.628Z,98775.63
2022-09-26T18:37:55.951Z,98775.69
2022-09-26T18:40:23.937Z,98773.56
2022-09-26T18:42:51.536Z,98768.78
2022-09-26T18:45:30.489Z,98771.69
2022-09-26T18:47:57.840Z,98773.66
2022-09-26T18:50:29.834Z,98779.19
2022-09-26T18:52:57.286Z,98770.06
2022-09-26T18:55:43.886Z,98771.22
2022-09-26T18:58:24.471Z,98779.06
2022-09-26T19:01:00.387Z,98779.97
2022-09-26T19:03:29.463Z,98781.50
2022-09-26T19:06:02.987Z,98776.25
2022-09-26T19:08:35.573Z,98770.41
2022-09-26T19:11:13.121Z,98774.75
2022-09-26T19:13:41.261Z,98781.63
2022-09-26T19:16:09.477Z,98783.81
2022-09-26T19:18:37.202Z,98780.44
2022-09-26T19:21:06.441Z,98784.75
2022-09-26T19:23:35.291Z,98788.69
2022-09-26T19:26:03.446Z,98790.09
2022-09-26T19:28:32.969Z,98786.03
2022-09-26T19:31:00.962Z,98785.25
2022-09-26T19:33:28.319Z,98792.91
2022-09-26T19:35:55.805Z,98792.56
2022-09-26T19:38:25.122Z,98785.19
2022-09-26T19:40:53.742Z,98791.13
2022-09-26T19:43:21.444Z,98796.16
2022-09-26T19:45:51.402Z,98796.37
2022-09-26T19:48:20.884Z,98804.63
2022-09-26T19:50:48.588Z,98797.31
2022-09-26T19:53:17.464Z,98791.50
2022-09-26T19:55:45.923Z,98796.44
2022-09-26T19:58:18.167Z,98795.06
2022-09-26T20:00:48.033Z,98789.75
2022-09-26T20:03:17.811Z,98788.38
2022-09-26T20:05:49.381Z,98783.94
2022-09-26T20:08:25.240Z,98777.59
2022-09-26T20:10:56.083Z,98777.16
2022-09-26T20:13:23.712Z,98778.59
2022-09-26T20:15:51.128Z,98774.53
2022-09-26T20:18:21.157Z,98768.81
2022-09-26T20:20:54.949Z,98777.22
2022-09-26T20:23:24.237Z,98771.75
2022-09-26T20:25:52.675Z,98776.41
2022-09-26T20:28:20.051Z,98780.00
2022-09-26T20:30:54.410Z,98783.38
2022-09-26T20:33:22.739Z,98783.19
2022-09-26T20:36:02.585Z,98776.84
2022-09-26T20:38:38.548Z,98783.19
2022-09-26T20:41:13.180Z,98783.19
2022-09-26T20:43:41.216Z,98787.66
2022-09-26T20:46:09.338Z,98783.34
2022-09-26T20:48:37.101Z,98787.25
2022-09-26T20:51:04.953Z,98774.44
2022-09-26T20:53:32.330Z,98787.63
2022-09-26T20:55:59.841Z,98778.97
2022-09-26T20:58:28.067Z,98781.09
2022-09-26T21:00:55.753Z,98776.91
2022-09-26T21:03:25.584Z,98771.38
2022-09-26T21:05:53.221Z,98769.56
2022-09-26T21:08:26.083Z,98764.91
2022-09-26T21:10:54.351Z,98766.03
2022-09-26T21:13:22.346Z,98769.13
2022-09-26T21:15:49.737Z,98765.81
2022-09-26T21:18:23.228Z,98762.69
2022-09-26T21:20:51.593Z,98758.66
2022-09-26T21:23:20.636Z,98752.94
2022-09-26T21:25:48.317Z,98754.00
2022-09-26T21:28:26.531Z,98754.19
2022-09-26T21:30:58.298Z,98751.06
2022-09-26T21:33:25.760Z,98759.25
2022-09-26T21:35:53.101Z,98751.75
2022-09-26T21:38:20.813Z,98748.75
2022-09-26T21:40:53.724Z,98747.94
2022-09-26T21:43:22.712Z,98739.97
2022-09-26T21:45:50.264Z,98741.84
2022-09-26T21:48:17.666Z,98743.16
2022-09-26T21:50:56.772Z,98734.19
2022-09-26T21:53:36.558Z,98736.97
2022-09-26T21:56:07.811Z,98730.91
2022-09-26T21:58:36.605Z,98733.69
2022-09-26T22:01:04.296Z,98733.34
2022-09-26T22:03:32.139Z,98728.81
2022-09-26T22:06:03.602Z,98727.50
2022-09-26T22:08:33.911Z,98720.87
2022-09-26T22:11:03.148Z,98710.12
2022-09-26T22:13:30.501Z,98712.72
2022-09-26T22:16:07.369Z,98702.94
2022-09-26T22:18:35.121Z,98701.25
2022-09-26T22:21:04.409Z,98704.22
2022-09-26T22:23:32.359Z,98700.09
2022-09-26T22:25:59.740Z,98706.31
2022-09-26T22:28:27.569Z,98706.09
2022-09-26T22:30:55.133Z,98699.56
2022-09-26T22:33:22.687Z,98695.16
2022-09-26T22:35:50.546Z,98694.91
2022-09-26T22:38:20.630Z,98690.81
2022-09-26T22:41:01.747Z,98684.16
2022-09-26T22:43:29.721Z,98681.13
2022-09-26T22:46:04.378Z,98679.72
2022-09-26T22:48:33.022Z,98677.75
2022-09-26T22:51:00.476Z,98672.97
2022-09-26T22:53:27.869Z,98663.88
2022-09-26T22:55:55.654Z,98662.47
2022-09-26T22:58:23.492Z,98664.38
2022-09-26T23:00:51.181Z,98659.37
2022-09-26T23:03:18.831Z,98657.03
2022-09-26T23:05:51.256Z,98650.59
2022-09-26T23:08:18.857Z,98647.53
2022-09-26T23:10:50.335Z,98635.16
2022-09-26T23:13:18.456Z,98632.22
2022-09-26T23:15:46.079Z,98630.47
2022-09-26T23:18:13.686Z,98629.37
2022-09-26T23:20:42.039Z,98621.97
2022-09-26T23:23:10.295Z,98615.19
2022-09-26T23:25:41.359Z,98617.19
2022-09-26T23:28:08.791Z,98614.53
2022-09-26T23:30:36.433Z,98622.44
2022-09-26T23:33:03.802Z,98612.69
2022-09-26T23:35:31.200Z,98608.72
2022-09-26T23:37:58.864Z,98604.41
2022-09-26T23:40:26.477Z,98606.53
2022-09-26T23:42:53.833Z,98600.38
2022-09-26T23:45:21.445Z,98602.25
2022-09-26T23:47:49.361Z,98600.00
2022-09-26T23:50:16.705Z,98602.72
2022-09-26T23:52:44.813Z,98600.41
2022-09-26T23:55:12.344Z,98592.00
2022-09-26T23:57:39.772Z,98586.59
